sensor_id;sensor_type;location;lat;lon;timestamp;P1;durP1;ratioP1;P2;durP2;ratioP2
71164;SDS011;58859;55.132;-1.586;2023-02-18T00:01:52;3.97;;;0.90;;
71164;SDS011;58859;55.132;-1.586;2023-02-18T00:04:18;2.60;;;0.97;;
71164;SDS011;58859;55.132;-1.586;2023-02-18T00:06:43;2.07;;;0.80;;
71164;SDS011;58859;55.132;-1.586;2023-02-18T00:09:09;4.17;;;0.90;;
71164;SDS011;58859;55.132;-1.586;2023-02-18T00:11:35;3.83;;;1.00;;
71164;SDS011;58859;55.132;-1.586;2023-02-18T00:14:02;3.03;;;0.90;;
71164;SDS011;58859;55.132;-1.586;2023-02-18T00:16:29;1.20;;;0.70;;
71164;SDS011;58859;55.132;-1.586;2023-02-18T00:18:55;2.28;;;0.90;;
71164;SDS011;58859;55.132;-1.586;2023-02-18T00:21:21;3.47;;;1.52;;
71164;SDS011;58859;55.132;-1.586;2023-02-18T00:23:47;1.80;;;0.80;;
71164;SDS011;58859;55.132;-1.586;2023-02-18T00:26:13;5.00;;;1.48;;
71164;SDS011;58859;55.132;-1.586;2023-02-18T00:28:40;6.13;;;1.27;;
71164;SDS011;58859;55.132;-1.586;2023-02-18T00:31:10;5.50;;;0.88;;
71164;SDS011;58859;55.132;-1.586;2023-02-18T00:33:37;3.55;;;1.38;;
71164;SDS011;58859;55.132;-1.586;2023-02-18T00:36:03;3.70;;;0.70;;
71164;SDS011;58859;55.132;-1.586;2023-02-18T00:38:30;4.68;;;1.10;;
71164;SDS011;58859;55.132;-1.586;2023-02-18T00:40:55;8.18;;;1.00;;
71164;SDS011;58859;55.132;-1.586;2023-02-18T00:43:21;3.47;;;0.80;;
71164;SDS011;58859;55.132;-1.586;2023-02-18T00:45:46;1.67;;;0.70;;
71164;SDS011;58859;55.132;-1.586;2023-02-18T00:48:12;2.72;;;0.85;;
71164;SDS011;58859;55.132;-1.586;2023-02-18T00:50:37;2.80;;;0.80;;
71164;SDS011;58859;55.132;-1.586;2023-02-18T00:53:02;2.17;;;0.70;;
71164;SDS011;58859;55.132;-1.586;2023-02-18T00:55:28;3.20;;;1.20;;
71164;SDS011;58859;55.132;-1.586;2023-02-18T00:57:53;3.80;;;0.83;;
71164;SDS011;58859;55.132;-1.586;2023-02-18T01:00:19;2.28;;;1.00;;
71164;SDS011;58859;55.132;-1.586;2023-02-18T01:02:44;0.60;;;0.60;;
71164;SDS011;58859;55.132;-1.586;2023-02-18T01:05:10;3.23;;;1.60;;
71164;SDS011;58859;55.132;-1.586;2023-02-18T01:07:35;1.07;;;0.97;;
71164;SDS011;58859;55.132;-1.586;2023-02-18T01:10:00;1.25;;;0.88;;
71164;SDS011;58859;55.132;-1.586;2023-02-18T01:12:26;3.20;;;1.20;;
71164;SDS011;58859;55.132;-1.586;2023-02-18T01:14:51;4.67;;;1.30;;
71164;SDS011;58859;55.132;-1.586;2023-02-18T01:17:17;1.80;;;1.20;;
71164;SDS011;58859;55.132;-1.586;2023-02-18T01:19:42;13.90;;;2.07;;
71164;SDS011;58859;55.132;-1.586;2023-02-18T01:22:07;2.27;;;1.57;;
71164;SDS011;58859;55.132;-1.586;2023-02-18T01:24:33;3.87;;;1.77;;
71164;SDS011;58859;55.132;-1.586;2023-02-18T01:26:58;5.35;;;1.73;;
71164;SDS011;58859;55.132;-1.586;2023-02-18T01:29:24;5.15;;;1.75;;
71164;SDS011;58859;55.132;-1.586;2023-02-18T01:31:49;4.93;;;1.50;;
71164;SDS011;58859;55.132;-1.586;2023-02-18T01:34:15;8.83;;;2.07;;
71164;SDS011;58859;55.132;-1.586;2023-02-18T01:36:40;6.85;;;1.98;;
71164;SDS011;58859;55.132;-1.586;2023-02-18T01:39:06;5.87;;;2.37;;
71164;SDS011;58859;55.132;-1.586;2023-02-18T01:41:31;5.10;;;2.00;;
71164;SDS011;58859;55.132;-1.586;2023-02-18T01:46:42;6.45;;;3.08;;
71164;SDS011;58859;55.132;-1.586;2023-02-18T01:49:08;2.93;;;2.43;;
71164;SDS011;58859;55.132;-1.586;2023-02-18T01:51:36;9.95;;;3.28;;
71164;SDS011;58859;55.132;-1.586;2023-02-18T01:54:08;7.18;;;3.00;;
71164;SDS011;58859;55.132;-1.586;2023-02-18T01:59:05;7.13;;;3.20;;
71164;SDS011;58859;55.132;-1.586;2023-02-18T02:01:32;12.57;;;2.53;;
71164;SDS011;58859;55.132;-1.586;2023-02-18T02:03:57;6.10;;;2.63;;
71164;SDS011;58859;55.132;-1.586;2023-02-18T02:06:23;5.07;;;2.50;;
71164;SDS011;58859;55.132;-1.586;2023-02-18T02:08:50;7.75;;;3.15;;
71164;SDS011;58859;55.132;-1.586;2023-02-18T02:24:55;6.82;;;3.17;;
71164;SDS011;58859;55.132;-1.586;2023-02-18T02:35:23;6.97;;;3.47;;
71164;SDS011;58859;55.132;-1.586;2023-02-18T02:40:35;9.45;;;4.30;;
71164;SDS011;58859;55.132;-1.586;2023-02-18T02:45:50;4.73;;;3.43;;
71164;SDS011;58859;55.132;-1.586;2023-02-18T02:48:50;6.10;;;4.28;;
71164;SDS011;58859;55.132;-1.586;2023-02-18T02:54:09;7.05;;;4.13;;
71164;SDS011;58859;55.132;-1.586;2023-02-18T02:56:37;7.93;;;4.50;;
71164;SDS011;58859;55.132;-1.586;2023-02-18T02:59:04;5.90;;;4.30;;
71164;SDS011;58859;55.132;-1.586;2023-02-18T03:01:35;7.80;;;4.93;;
71164;SDS011;58859;55.132;-1.586;2023-02-18T03:04:12;8.77;;;6.18;;
71164;SDS011;58859;55.132;-1.586;2023-02-18T03:09:56;13.48;;;7.03;;
71164;SDS011;58859;55.132;-1.586;2023-02-18T03:12:35;11.63;;;6.90;;
71164;SDS011;58859;55.132;-1.586;2023-02-18T03:21:04;6.32;;;4.07;;
71164;SDS011;58859;55.132;-1.586;2023-02-18T03:23:39;4.45;;;3.63;;
71164;SDS011;58859;55.132;-1.586;2023-02-18T03:26:17;6.15;;;3.45;;
71164;SDS011;58859;55.132;-1.586;2023-02-18T03:28:44;5.57;;;3.05;;
71164;SDS011;58859;55.132;-1.586;2023-02-18T03:31:14;4.90;;;2.47;;
71164;SDS011;58859;55.132;-1.586;2023-02-18T03:33:54;4.53;;;2.75;;
71164;SDS011;58859;55.132;-1.586;2023-02-18T03:36:25;2.63;;;2.13;;
71164;SDS011;58859;55.132;-1.586;2023-02-18T03:41:21;3.15;;;1.88;;
71164;SDS011;58859;55.132;-1.586;2023-02-18T03:43:53;2.80;;;1.53;;
71164;SDS011;58859;55.132;-1.586;2023-02-18T03:46:24;1.70;;;1.30;;
71164;SDS011;58859;55.132;-1.586;2023-02-18T03:48:51;1.45;;;1.10;;
71164;SDS011;58859;55.132;-1.586;2023-02-18T03:51:17;1.27;;;1.17;;
71164;SDS011;58859;55.132;-1.586;2023-02-18T03:53:43;3.40;;;1.30;;
71164;SDS011;58859;55.132;-1.586;2023-02-18T03:56:09;1.33;;;1.02;;
71164;SDS011;58859;55.132;-1.586;2023-02-18T03:58:34;1.13;;;1.03;;
71164;SDS011;58859;55.132;-1.586;2023-02-18T04:01:00;1.77;;;1.50;;
71164;SDS011;58859;55.132;-1.586;2023-02-18T04:03:25;1.47;;;1.13;;
71164;SDS011;58859;55.132;-1.586;2023-02-18T04:05:50;0.85;;;0.85;;
71164;SDS011;58859;55.132;-1.586;2023-02-18T04:08:16;3.03;;;0.90;;
71164;SDS011;58859;55.132;-1.586;2023-02-18T04:10:41;1.43;;;0.63;;
71164;SDS011;58859;55.132;-1.586;2023-02-18T04:13:07;0.70;;;0.70;;
71164;SDS011;58859;55.132;-1.586;2023-02-18T04:15:32;0.60;;;0.60;;
71164;SDS011;58859;55.132;-1.586;2023-02-18T04:17:59;1.17;;;0.50;;
71164;SDS011;58859;55.132;-1.586;2023-02-18T04:20:24;0.80;;;0.80;;
71164;SDS011;58859;55.132;-1.586;2023-02-18T04:22:49;0.60;;;0.60;;
71164;SDS011;58859;55.132;-1.586;2023-02-18T04:25:15;1.40;;;0.63;;
71164;SDS011;58859;55.132;-1.586;2023-02-18T04:27:40;1.75;;;0.93;;
71164;SDS011;58859;55.132;-1.586;2023-02-18T04:30:06;3.30;;;0.83;;
71164;SDS011;58859;55.132;-1.586;2023-02-18T04:32:32;1.15;;;0.70;;
71164;SDS011;58859;55.132;-1.586;2023-02-18T04:34:57;1.10;;;0.63;;
71164;SDS011;58859;55.132;-1.586;2023-02-18T04:37:23;0.73;;;0.60;;
71164;SDS011;58859;55.132;-1.586;2023-02-18T04:39:48;0.83;;;0.50;;
71164;SDS011;58859;55.132;-1.586;2023-02-18T04:42:14;1.40;;;0.57;;
71164;SDS011;58859;55.132;-1.586;2023-02-18T04:44:39;0.98;;;0.30;;
71164;SDS011;58859;55.132;-1.586;2023-02-18T04:47:04;1.37;;;0.40;;
71164;SDS011;58859;55.132;-1.586;2023-02-18T04:49:30;2.40;;;1.10;;
71164;SDS011;58859;55.132;-1.586;2023-02-18T04:51:56;1.13;;;1.02;;
71164;SDS011;58859;55.132;-1.586;2023-02-18T04:54:21;1.25;;;0.60;;
71164;SDS011;58859;55.132;-1.586;2023-02-18T04:56:46;1.50;;;0.70;;
71164;SDS011;58859;55.132;-1.586;2023-02-18T04:59:12;4.40;;;0.60;;
71164;SDS011;58859;55.132;-1.586;2023-02-18T05:01:37;1.17;;;0.50;;
71164;SDS011;58859;55.132;-1.586;2023-02-18T05:04:03;2.57;;;0.57;;
71164;SDS011;58859;55.132;-1.586;2023-02-18T05:06:28;0.80;;;0.40;;
71164;SDS011;58859;55.132;-1.586;2023-02-18T05:08:53;5.00;;;0.67;;
71164;SDS011;58859;55.132;-1.586;2023-02-18T05:11:19;1.27;;;0.53;;
71164;SDS011;58859;55.132;-1.586;2023-02-18T05:13:44;1.17;;;0.57;;
71164;SDS011;58859;55.132;-1.586;2023-02-18T05:16:10;2.53;;;0.97;;
71164;SDS011;58859;55.132;-1.586;2023-02-18T05:18:35;3.72;;;0.47;;
71164;SDS011;58859;55.132;-1.586;2023-02-18T05:21:00;0.60;;;0.20;;
71164;SDS011;58859;55.132;-1.586;2023-02-18T05:23:26;1.00;;;0.50;;
71164;SDS011;58859;55.132;-1.586;2023-02-18T05:25:51;0.70;;;0.70;;
71164;SDS011;58859;55.132;-1.586;2023-02-18T05:28:18;1.27;;;0.40;;
71164;SDS011;58859;55.132;-1.586;2023-02-18T05:30:43;0.35;;;0.35;;
71164;SDS011;58859;55.132;-1.586;2023-02-18T05:33:09;0.73;;;0.73;;
71164;SDS011;58859;55.132;-1.586;2023-02-18T05:35:34;0.97;;;0.60;;
71164;SDS011;58859;55.132;-1.586;2023-02-18T05:37:59;1.07;;;0.60;;
71164;SDS011;58859;55.132;-1.586;2023-02-18T05:40:25;0.50;;;0.50;;
71164;SDS011;58859;55.132;-1.586;2023-02-18T05:42:50;2.27;;;0.63;;
71164;SDS011;58859;55.132;-1.586;2023-02-18T05:45:16;2.25;;;0.63;;
71164;SDS011;58859;55.132;-1.586;2023-02-18T05:47:41;1.85;;;0.43;;
71164;SDS011;58859;55.132;-1.586;2023-02-18T05:50:07;0.87;;;0.43;;
71164;SDS011;58859;55.132;-1.586;2023-02-18T05:52:32;1.95;;;0.50;;
71164;SDS011;58859;55.132;-1.586;2023-02-18T05:54:58;1.60;;;0.43;;
71164;SDS011;58859;55.132;-1.586;2023-02-18T05:57:23;0.70;;;0.50;;
71164;SDS011;58859;55.132;-1.586;2023-02-18T05:59:50;4.00;;;1.02;;
71164;SDS011;58859;55.132;-1.586;2023-02-18T06:02:15;1.73;;;0.60;;
71164;SDS011;58859;55.132;-1.586;2023-02-18T06:04:41;2.90;;;0.90;;
71164;SDS011;58859;55.132;-1.586;2023-02-18T06:07:06;1.40;;;0.77;;
71164;SDS011;58859;55.132;-1.586;2023-02-18T06:09:32;1.77;;;0.47;;
71164;SDS011;58859;55.132;-1.586;2023-02-18T06:11:57;1.37;;;0.73;;
71164;SDS011;58859;55.132;-1.586;2023-02-18T06:14:22;3.40;;;0.83;;
71164;SDS011;58859;55.132;-1.586;2023-02-18T06:16:48;1.98;;;0.52;;
71164;SDS011;58859;55.132;-1.586;2023-02-18T06:19:13;3.88;;;0.77;;
71164;SDS011;58859;55.132;-1.586;2023-02-18T06:21:38;4.73;;;0.83;;
71164;SDS011;58859;55.132;-1.586;2023-02-18T06:24:04;1.40;;;0.50;;
71164;SDS011;58859;55.132;-1.586;2023-02-18T06:26:29;2.30;;;0.40;;
71164;SDS011;58859;55.132;-1.586;2023-02-18T06:28:55;0.40;;;0.30;;
71164;SDS011;58859;55.132;-1.586;2023-02-18T06:31:20;2.80;;;0.60;;
71164;SDS011;58859;55.132;-1.586;2023-02-18T06:33:46;1.27;;;0.60;;
71164;SDS011;58859;55.132;-1.586;2023-02-18T06:36:12;2.30;;;0.70;;
71164;SDS011;58859;55.132;-1.586;2023-02-18T06:38:38;1.65;;;0.70;;
71164;SDS011;58859;55.132;-1.586;2023-02-18T06:41:05;1.75;;;0.73;;
71164;SDS011;58859;55.132;-1.586;2023-02-18T06:43:30;1.33;;;0.60;;
71164;SDS011;58859;55.132;-1.586;2023-02-18T06:45:56;2.00;;;0.70;;
71164;SDS011;58859;55.132;-1.586;2023-02-18T06:48:21;3.13;;;0.60;;
71164;SDS011;58859;55.132;-1.586;2023-02-18T06:50:47;1.67;;;0.50;;
71164;SDS011;58859;55.132;-1.586;2023-02-18T06:53:12;2.47;;;0.50;;
71164;SDS011;58859;55.132;-1.586;2023-02-18T06:55:39;1.90;;;0.60;;
71164;SDS011;58859;55.132;-1.586;2023-02-18T06:58:05;0.85;;;0.55;;
71164;SDS011;58859;55.132;-1.586;2023-02-18T07:00:31;0.93;;;0.40;;
71164;SDS011;58859;55.132;-1.586;2023-02-18T07:02:56;3.50;;;0.80;;
71164;SDS011;58859;55.132;-1.586;2023-02-18T07:05:21;1.33;;;0.47;;
71164;SDS011;58859;55.132;-1.586;2023-02-18T07:07:47;0.97;;;0.90;;
71164;SDS011;58859;55.132;-1.586;2023-02-18T07:10:12;4.03;;;0.50;;
71164;SDS011;58859;55.132;-1.586;2023-02-18T07:12:38;1.90;;;0.60;;
71164;SDS011;58859;55.132;-1.586;2023-02-18T07:15:03;1.80;;;1.00;;
71164;SDS011;58859;55.132;-1.586;2023-02-18T07:17:29;3.25;;;0.85;;
71164;SDS011;58859;55.132;-1.586;2023-02-18T07:19:54;2.20;;;0.63;;
71164;SDS011;58859;55.132;-1.586;2023-02-18T07:22:20;2.33;;;0.80;;
71164;SDS011;58859;55.132;-1.586;2023-02-18T07:24:49;3.05;;;0.52;;
71164;SDS011;58859;55.132;-1.586;2023-02-18T07:27:16;2.72;;;0.52;;
71164;SDS011;58859;55.132;-1.586;2023-02-18T07:29:42;2.73;;;0.83;;
71164;SDS011;58859;55.132;-1.586;2023-02-18T07:32:07;3.50;;;0.77;;
71164;SDS011;58859;55.132;-1.586;2023-02-18T07:34:32;2.03;;;1.40;;
71164;SDS011;58859;55.132;-1.586;2023-02-18T07:36:58;2.63;;;0.67;;
71164;SDS011;58859;55.132;-1.586;2023-02-18T07:39:23;1.75;;;0.55;;
71164;SDS011;58859;55.132;-1.586;2023-02-18T07:41:48;0.90;;;0.40;;
71164;SDS011;58859;55.132;-1.586;2023-02-18T07:44:14;1.80;;;0.40;;
71164;SDS011;58859;55.132;-1.586;2023-02-18T07:46:40;1.20;;;0.60;;
71164;SDS011;58859;55.132;-1.586;2023-02-18T07:49:06;2.75;;;0.50;;
71164;SDS011;58859;55.132;-1.586;2023-02-18T07:51:31;2.25;;;0.70;;
71164;SDS011;58859;55.132;-1.586;2023-02-18T07:53:57;3.03;;;0.50;;
71164;SDS011;58859;55.132;-1.586;2023-02-18T07:56:22;1.63;;;0.80;;
71164;SDS011;58859;55.132;-1.586;2023-02-18T07:58:48;0.40;;;0.30;;
71164;SDS011;58859;55.132;-1.586;2023-02-18T08:01:13;3.57;;;0.60;;
71164;SDS011;58859;55.132;-1.586;2023-02-18T08:03:39;1.30;;;0.60;;
71164;SDS011;58859;55.132;-1.586;2023-02-18T08:06:05;2.50;;;0.50;;
71164;SDS011;58859;55.132;-1.586;2023-02-18T08:08:31;2.80;;;0.50;;
71164;SDS011;58859;55.132;-1.586;2023-02-18T08:10:58;1.88;;;0.40;;
71164;SDS011;58859;55.132;-1.586;2023-02-18T08:13:30;1.95;;;0.40;;
71164;SDS011;58859;55.132;-1.586;2023-02-18T08:15:56;0.77;;;0.50;;
71164;SDS011;58859;55.132;-1.586;2023-02-18T08:18:22;0.40;;;0.40;;
71164;SDS011;58859;55.132;-1.586;2023-02-18T08:20:49;0.57;;;0.50;;
71164;SDS011;58859;55.132;-1.586;2023-02-18T08:23:16;0.75;;;0.63;;
71164;SDS011;58859;55.132;-1.586;2023-02-18T08:25:47;0.60;;;0.45;;
71164;SDS011;58859;55.132;-1.586;2023-02-18T08:28:13;2.40;;;0.70;;
71164;SDS011;58859;55.132;-1.586;2023-02-18T08:30:38;0.40;;;0.40;;
71164;SDS011;58859;55.132;-1.586;2023-02-18T08:33:08;1.58;;;0.70;;
71164;SDS011;58859;55.132;-1.586;2023-02-18T08:35:34;2.67;;;1.33;;
71164;SDS011;58859;55.132;-1.586;2023-02-18T08:37:59;1.17;;;0.70;;
71164;SDS011;58859;55.132;-1.586;2023-02-18T08:40:25;3.42;;;0.82;;
71164;SDS011;58859;55.132;-1.586;2023-02-18T08:42:50;2.10;;;0.60;;
71164;SDS011;58859;55.132;-1.586;2023-02-18T08:45:15;4.27;;;0.90;;
71164;SDS011;58859;55.132;-1.586;2023-02-18T08:47:41;4.40;;;0.90;;
71164;SDS011;58859;55.132;-1.586;2023-02-18T08:50:06;6.57;;;1.07;;
71164;SDS011;58859;55.132;-1.586;2023-02-18T08:52:32;5.90;;;1.17;;
71164;SDS011;58859;55.132;-1.586;2023-02-18T08:54:57;3.23;;;0.90;;
71164;SDS011;58859;55.132;-1.586;2023-02-18T08:57:23;4.50;;;1.57;;
71164;SDS011;58859;55.132;-1.586;2023-02-18T08:59:48;5.20;;;1.13;;
71164;SDS011;58859;55.132;-1.586;2023-02-18T09:02:14;8.25;;;1.48;;
71164;SDS011;58859;55.132;-1.586;2023-02-18T09:04:39;5.50;;;1.37;;
71164;SDS011;58859;55.132;-1.586;2023-02-18T09:07:05;3.27;;;1.10;;
71164;SDS011;58859;55.132;-1.586;2023-02-18T09:09:30;4.32;;;1.30;;
71164;SDS011;58859;55.132;-1.586;2023-02-18T09:11:56;8.33;;;1.40;;
71164;SDS011;58859;55.132;-1.586;2023-02-18T09:14:22;7.05;;;1.13;;
71164;SDS011;58859;55.132;-1.586;2023-02-18T09:16:47;8.03;;;1.27;;
71164;SDS011;58859;55.132;-1.586;2023-02-18T09:19:14;8.60;;;1.42;;
71164;SDS011;58859;55.132;-1.586;2023-02-18T09:21:40;5.00;;;1.13;;
71164;SDS011;58859;55.132;-1.586;2023-02-18T09:24:05;9.40;;;1.27;;
71164;SDS011;58859;55.132;-1.586;2023-02-18T09:26:31;5.10;;;1.67;;
71164;SDS011;58859;55.132;-1.586;2023-02-18T09:28:57;4.30;;;1.45;;
71164;SDS011;58859;55.132;-1.586;2023-02-18T09:31:23;6.13;;;1.57;;
71164;SDS011;58859;55.132;-1.586;2023-02-18T09:33:51;3.15;;;0.80;;
71164;SDS011;58859;55.132;-1.586;2023-02-18T09:36:21;8.77;;;2.38;;
71164;SDS011;58859;55.132;-1.586;2023-02-18T09:38:47;10.55;;;1.38;;
71164;SDS011;58859;55.132;-1.586;2023-02-18T09:41:15;7.20;;;1.20;;
71164;SDS011;58859;55.132;-1.586;2023-02-18T09:43:49;7.20;;;1.33;;
71164;SDS011;58859;55.132;-1.586;2023-02-18T09:46:19;4.85;;;1.02;;
71164;SDS011;58859;55.132;-1.586;2023-02-18T09:48:46;6.45;;;0.93;;
71164;SDS011;58859;55.132;-1.586;2023-02-18T09:51:13;7.95;;;1.23;;
71164;SDS011;58859;55.132;-1.586;2023-02-18T09:53:39;4.90;;;0.80;;
71164;SDS011;58859;55.132;-1.586;2023-02-18T09:56:08;4.13;;;1.13;;
71164;SDS011;58859;55.132;-1.586;2023-02-18T09:58:37;3.28;;;0.98;;
71164;SDS011;58859;55.132;-1.586;2023-02-18T10:01:09;7.00;;;0.87;;
71164;SDS011;58859;55.132;-1.586;2023-02-18T10:03:44;3.70;;;1.10;;
71164;SDS011;58859;55.132;-1.586;2023-02-18T10:06:32;2.78;;;1.00;;
71164;SDS011;58859;55.132;-1.586;2023-02-18T10:08:58;4.67;;;0.77;;
71164;SDS011;58859;55.132;-1.586;2023-02-18T10:14:00;6.57;;;1.02;;
71164;SDS011;58859;55.132;-1.586;2023-02-18T10:16:27;4.07;;;0.90;;
71164;SDS011;58859;55.132;-1.586;2023-02-18T10:18:53;5.73;;;1.07;;
71164;SDS011;58859;55.132;-1.586;2023-02-18T10:21:23;4.63;;;1.00;;
71164;SDS011;58859;55.132;-1.586;2023-02-18T10:24:37;5.05;;;1.33;;
71164;SDS011;58859;55.132;-1.586;2023-02-18T10:26:38;1.10;;;0.50;;
71164;SDS011;58859;55.132;-1.586;2023-02-18T10:29:08;5.45;;;1.10;;
71164;SDS011;58859;55.132;-1.586;2023-02-18T10:31:40;1.43;;;0.80;;
71164;SDS011;58859;55.132;-1.586;2023-02-18T10:37:00;5.05;;;0.65;;
71164;SDS011;58859;55.132;-1.586;2023-02-18T10:42:19;1.67;;;0.50;;
71164;SDS011;58859;55.132;-1.586;2023-02-18T10:53:01;3.70;;;1.20;;
71164;SDS011;58859;55.132;-1.586;2023-02-18T10:55:34;0.68;;;0.45;;
71164;SDS011;58859;55.132;-1.586;2023-02-18T10:58:23;1.13;;;0.20;;
71164;SDS011;58859;55.132;-1.586;2023-02-18T11:00:49;1.33;;;0.47;;
71164;SDS011;58859;55.132;-1.586;2023-02-18T11:05:49;0.85;;;0.22;;
71164;SDS011;58859;55.132;-1.586;2023-02-18T11:08:23;0.40;;;0.30;;
71164;SDS011;58859;55.132;-1.586;2023-02-18T11:10:52;0.40;;;0.30;;
71164;SDS011;58859;55.132;-1.586;2023-02-18T11:13:25;1.65;;;0.40;;
71164;SDS011;58859;55.132;-1.586;2023-02-18T11:16:00;0.40;;;0.40;;
71164;SDS011;58859;55.132;-1.586;2023-02-18T11:18:36;0.40;;;0.40;;
71164;SDS011;58859;55.132;-1.586;2023-02-18T11:21:05;0.32;;;0.32;;
71164;SDS011;58859;55.132;-1.586;2023-02-18T11:23:52;0.87;;;0.30;;
71164;SDS011;58859;55.132;-1.586;2023-02-18T11:26:51;0.40;;;0.38;;
71164;SDS011;58859;55.132;-1.586;2023-02-18T11:29:15;1.73;;;1.33;;
71164;SDS011;58859;55.132;-1.586;2023-02-18T11:31:48;0.60;;;0.60;;
71164;SDS011;58859;55.132;-1.586;2023-02-18T11:34:17;0.75;;;0.75;;
71164;SDS011;58859;55.132;-1.586;2023-02-18T11:36:47;1.73;;;0.73;;
71164;SDS011;58859;55.132;-1.586;2023-02-18T11:39:17;1.10;;;0.60;;
71164;SDS011;58859;55.132;-1.586;2023-02-18T11:47:00;1.90;;;1.10;;
71164;SDS011;58859;55.132;-1.586;2023-02-18T11:49:38;2.30;;;0.90;;
71164;SDS011;58859;55.132;-1.586;2023-02-18T11:52:27;3.20;;;1.20;;
71164;SDS011;58859;55.132;-1.586;2023-02-18T11:57:30;1.25;;;1.02;;
71164;SDS011;58859;55.132;-1.586;2023-02-18T12:00:02;20.73;;;8.50;;
71164;SDS011;58859;55.132;-1.586;2023-02-18T12:02:33;1.97;;;1.23;;
71164;SDS011;58859;55.132;-1.586;2023-02-18T12:08:06;3.53;;;1.30;;
71164;SDS011;58859;55.132;-1.586;2023-02-18T12:10:39;3.20;;;0.90;;
71164;SDS011;58859;55.132;-1.586;2023-02-18T12:16:17;2.47;;;0.93;;
71164;SDS011;58859;55.132;-1.586;2023-02-18T12:35:31;4.00;;;1.40;;
71164;SDS011;58859;55.132;-1.586;2023-02-18T12:46:30;7.32;;;2.55;;
71164;SDS011;58859;55.132;-1.586;2023-02-18T12:51:59;7.00;;;2.47;;
71164;SDS011;58859;55.132;-1.586;2023-02-18T13:06:15;5.03;;;1.02;;
71164;SDS011;58859;55.132;-1.586;2023-02-18T13:11:40;2.28;;;1.30;;
71164;SDS011;58859;55.132;-1.586;2023-02-18T13:16:38;0.98;;;0.93;;
71164;SDS011;58859;55.132;-1.586;2023-02-18T13:21:47;2.97;;;1.05;;
71164;SDS011;58859;55.132;-1.586;2023-02-18T13:24:24;1.27;;;1.17;;
71164;SDS011;58859;55.132;-1.586;2023-02-18T13:26:52;2.13;;;0.80;;
71164;SDS011;58859;55.132;-1.586;2023-02-18T13:37:21;3.50;;;0.93;;
71164;SDS011;58859;55.132;-1.586;2023-02-18T13:40:08;2.00;;;0.85;;
71164;SDS011;58859;55.132;-1.586;2023-02-18T13:42:43;1.17;;;0.47;;
71164;SDS011;58859;55.132;-1.586;2023-02-18T13:45:41;3.10;;;0.60;;
71164;SDS011;58859;55.132;-1.586;2023-02-18T13:48:00;3.28;;;0.80;;
71164;SDS011;58859;55.132;-1.586;2023-02-18T13:53:25;1.50;;;1.27;;
71164;SDS011;58859;55.132;-1.586;2023-02-18T13:56:07;2.28;;;0.60;;
71164;SDS011;58859;55.132;-1.586;2023-02-18T13:58:36;2.42;;;0.57;;
71164;SDS011;58859;55.132;-1.586;2023-02-18T14:01:05;3.75;;;1.23;;
71164;SDS011;58859;55.132;-1.586;2023-02-18T14:03:55;1.70;;;1.08;;
71164;SDS011;58859;55.132;-1.586;2023-02-18T14:09:03;1.95;;;0.70;;
71164;SDS011;58859;55.132;-1.586;2023-02-18T14:11:53;0.90;;;0.68;;
71164;SDS011;58859;55.132;-1.586;2023-02-18T14:25:02;2.72;;;0.70;;
71164;SDS011;58859;55.132;-1.586;2023-02-18T14:27:28;1.05;;;0.60;;
71164;SDS011;58859;55.132;-1.586;2023-02-18T14:29:53;2.33;;;1.03;;
71164;SDS011;58859;55.132;-1.586;2023-02-18T14:32:19;2.73;;;1.00;;
71164;SDS011;58859;55.132;-1.586;2023-02-18T14:34:57;1.95;;;0.65;;
71164;SDS011;58859;55.132;-1.586;2023-02-18T14:37:40;3.42;;;1.80;;
71164;SDS011;58859;55.132;-1.586;2023-02-18T14:40:25;1.83;;;0.55;;
71164;SDS011;58859;55.132;-1.586;2023-02-18T14:51:04;1.60;;;0.90;;
71164;SDS011;58859;55.132;-1.586;2023-02-18T14:53:29;3.03;;;1.63;;
71164;SDS011;58859;55.132;-1.586;2023-02-18T14:55:59;7.15;;;3.72;;
71164;SDS011;58859;55.132;-1.586;2023-02-18T14:58:35;1.23;;;0.90;;
71164;SDS011;58859;55.132;-1.586;2023-02-18T15:01:05;1.17;;;0.77;;
71164;SDS011;58859;55.132;-1.586;2023-02-18T15:03:32;0.95;;;0.95;;
71164;SDS011;58859;55.132;-1.586;2023-02-18T15:05:57;1.47;;;0.83;;
71164;SDS011;58859;55.132;-1.586;2023-02-18T15:08:23;0.80;;;0.70;;
71164;SDS011;58859;55.132;-1.586;2023-02-18T15:10:55;1.92;;;0.70;;
71164;SDS011;58859;55.132;-1.586;2023-02-18T15:13:24;2.78;;;1.70;;
71164;SDS011;58859;55.132;-1.586;2023-02-18T15:15:56;4.47;;;2.55;;
71164;SDS011;58859;55.132;-1.586;2023-02-18T15:21:01;1.15;;;0.65;;
71164;SDS011;58859;55.132;-1.586;2023-02-18T15:23:28;1.98;;;1.15;;
71164;SDS011;58859;55.132;-1.586;2023-02-18T15:25:54;0.85;;;0.85;;
71164;SDS011;58859;55.132;-1.586;2023-02-18T15:28:20;2.07;;;1.20;;
71164;SDS011;58859;55.132;-1.586;2023-02-18T15:30:50;1.55;;;1.45;;
71164;SDS011;58859;55.132;-1.586;2023-02-18T15:33:16;2.37;;;0.90;;
71164;SDS011;58859;55.132;-1.586;2023-02-18T15:35:43;0.77;;;0.77;;
71164;SDS011;58859;55.132;-1.586;2023-02-18T15:38:13;2.40;;;1.80;;
71164;SDS011;58859;55.132;-1.586;2023-02-18T15:40:40;2.53;;;1.88;;
71164;SDS011;58859;55.132;-1.586;2023-02-18T15:43:05;2.73;;;1.80;;
71164;SDS011;58859;55.132;-1.586;2023-02-18T15:45:32;1.80;;;1.50;;
71164;SDS011;58859;55.132;-1.586;2023-02-18T15:47:59;1.35;;;1.25;;
71164;SDS011;58859;55.132;-1.586;2023-02-18T15:50:30;1.42;;;1.15;;
71164;SDS011;58859;55.132;-1.586;2023-02-18T15:53:04;1.33;;;1.20;;
71164;SDS011;58859;55.132;-1.586;2023-02-18T15:55:36;0.70;;;0.70;;
71164;SDS011;58859;55.132;-1.586;2023-02-18T15:58:04;0.93;;;0.93;;
71164;SDS011;58859;55.132;-1.586;2023-02-18T16:00:40;2.38;;;1.73;;
71164;SDS011;58859;55.132;-1.586;2023-02-18T16:03:13;1.90;;;1.73;;
71164;SDS011;58859;55.132;-1.586;2023-02-18T16:05:50;0.97;;;0.90;;
71164;SDS011;58859;55.132;-1.586;2023-02-18T16:08:23;1.00;;;1.00;;
71164;SDS011;58859;55.132;-1.586;2023-02-18T16:10:54;1.55;;;1.15;;
71164;SDS011;58859;55.132;-1.586;2023-02-18T16:13:21;1.35;;;1.05;;
71164;SDS011;58859;55.132;-1.586;2023-02-18T16:15:48;1.38;;;0.88;;
71164;SDS011;58859;55.132;-1.586;2023-02-18T16:18:22;1.23;;;0.90;;
71164;SDS011;58859;55.132;-1.586;2023-02-18T16:20:52;2.75;;;1.50;;
71164;SDS011;58859;55.132;-1.586;2023-02-18T16:23:24;1.75;;;1.42;;
71164;SDS011;58859;55.132;-1.586;2023-02-18T16:25:50;1.10;;;1.10;;
71164;SDS011;58859;55.132;-1.586;2023-02-18T16:30:42;2.70;;;1.30;;
71164;SDS011;58859;55.132;-1.586;2023-02-18T16:33:10;1.98;;;1.60;;
71164;SDS011;58859;55.132;-1.586;2023-02-18T16:35:36;2.60;;;1.58;;
71164;SDS011;58859;55.132;-1.586;2023-02-18T16:38:01;2.50;;;1.63;;
71164;SDS011;58859;55.132;-1.586;2023-02-18T16:43:24;1.80;;;1.50;;
71164;SDS011;58859;55.132;-1.586;2023-02-18T16:45:52;3.15;;;1.90;;
71164;SDS011;58859;55.132;-1.586;2023-02-18T16:50:58;4.05;;;1.90;;
71164;SDS011;58859;55.132;-1.586;2023-02-18T16:53:25;2.65;;;1.77;;
71164;SDS011;58859;55.132;-1.586;2023-02-18T16:55:50;3.17;;;2.10;;
71164;SDS011;58859;55.132;-1.586;2023-02-18T16:58:16;3.78;;;2.75;;
71164;SDS011;58859;55.132;-1.586;2023-02-18T17:00:42;2.73;;;1.60;;
71164;SDS011;58859;55.132;-1.586;2023-02-18T17:03:08;2.70;;;1.30;;
71164;SDS011;58859;55.132;-1.586;2023-02-18T17:05:34;5.03;;;2.10;;
71164;SDS011;58859;55.132;-1.586;2023-02-18T17:10:52;3.08;;;1.08;;
71164;SDS011;58859;55.132;-1.586;2023-02-18T17:13:24;5.63;;;1.80;;
71164;SDS011;58859;55.132;-1.586;2023-02-18T17:15:52;2.65;;;1.90;;
71164;SDS011;58859;55.132;-1.586;2023-02-18T17:18:19;3.30;;;2.95;;
71164;SDS011;58859;55.132;-1.586;2023-02-18T17:20:44;6.53;;;3.80;;
71164;SDS011;58859;55.132;-1.586;2023-02-18T17:23:13;6.38;;;3.05;;
71164;SDS011;58859;55.132;-1.586;2023-02-18T17:25:39;2.83;;;2.40;;
71164;SDS011;58859;55.132;-1.586;2023-02-18T17:28:05;2.50;;;1.95;;
71164;SDS011;58859;55.132;-1.586;2023-02-18T17:30:31;2.37;;;1.80;;
71164;SDS011;58859;55.132;-1.586;2023-02-18T17:33:00;2.92;;;2.47;;